createdAt,value
2018-11-13T00:01:23.599Z,26.37
2018-11-13T00:03:57.907Z,27.53
2018-11-13T00:06:32.275Z,29.13
2018-11-13T00:09:07.963Z,29.50
2018-11-13T00:11:42.119Z,27.03
2018-11-13T00:14:16.502Z,27.77
2018-11-13T00:16:50.767Z,30.33
2018-11-13T00:19:25.122Z,29.30
2018-11-13T00:21:59.282Z,27.67
2018-11-13T00:24:33.608Z,27.83
2018-11-13T00:27:07.930Z,25.43
2018-11-13T00:29:42.154Z,24.27
2018-11-13T00:32:16.430Z,24.30
2018-11-13T00:34:50.781Z,27.50
2018-11-13T00:37:25.213Z,24.50
2018-11-13T00:39:59.486Z,27.83
2018-11-13T00:42:33.833Z,27.70
2018-11-13T00:45:08.374Z,28.87
2018-11-13T00:47:42.706Z,27.23
2018-11-13T00:50:18.241Z,31.33
2018-11-13T00:52:52.547Z,27.40
2018-11-13T00:55:26.886Z,27.40
2018-11-13T00:58:01.102Z,32.07
2018-11-13T01:00:35.292Z,26.73
2018-11-13T01:03:09.494Z,29.90
2018-11-13T01:05:43.852Z,27.73
2018-11-13T01:08:18.090Z,28.83
2018-11-13T01:10:52.365Z,29.43
2018-11-13T01:13:26.526Z,29.50
2018-11-13T01:16:00.815Z,28.13
2018-11-13T01:18:35.098Z,27.87
2018-11-13T01:21:09.418Z,29.67
2018-11-13T01:23:43.592Z,31.40
2018-11-13T01:26:17.913Z,33.30
2018-11-13T01:28:52.163Z,32.30
2018-11-13T01:31:26.454Z,29.10
2018-11-13T01:34:00.722Z,30.53
2018-11-13T01:36:35.010Z,31.77
2018-11-13T01:39:10.370Z,31.03
2018-11-13T01:41:44.754Z,29.37
2018-11-13T01:44:19.186Z,27.70
2018-11-13T01:46:53.513Z,29.73
2018-11-13T01:49:27.848Z,28.87
2018-11-13T01:52:02.151Z,29.23
2018-11-13T01:54:36.794Z,29.67
2018-11-13T01:57:11.164Z,31.17
2018-11-13T01:59:45.430Z,28.00
2018-11-13T02:02:19.602Z,31.37
2018-11-13T02:04:53.921Z,30.60
2018-11-13T02:07:28.050Z,30.17
2018-11-13T02:10:02.333Z,29.83
2018-11-13T02:12:36.518Z,30.33
2018-11-13T02:15:10.813Z,29.20
2018-11-13T02:17:45.051Z,31.60
2018-11-13T02:20:20.593Z,31.00
2018-11-13T02:22:54.770Z,30.57
2018-11-13T02:25:29.135Z,31.83
2018-11-13T02:28:03.433Z,27.40
2018-11-13T02:30:37.750Z,32.63
2018-11-13T02:33:12.046Z,31.30
2018-11-13T02:35:46.442Z,35.63
2018-11-13T02:38:20.731Z,31.00
2018-11-13T02:40:55.050Z,28.60
2018-11-13T02:43:29.315Z,31.83
2018-11-13T02:46:03.724Z,35.60
2018-11-13T02:48:38.010Z,32.80
2018-11-13T02:51:12.326Z,29.77
2018-11-13T02:53:46.666Z,37.13
2018-11-13T02:56:21.086Z,37.33
2018-11-13T02:58:55.338Z,33.40
2018-11-13T03:01:29.639Z,43.83
2018-11-13T03:04:03.946Z,40.03
2018-11-13T03:06:38.253Z,39.13
2018-11-13T03:09:12.528Z,39.90
2018-11-13T03:11:46.989Z,40.33
2018-11-13T03:14:21.210Z,40.57
2018-11-13T03:16:55.491Z,37.17
2018-11-13T03:19:29.873Z,38.27
2018-11-13T03:22:04.381Z,43.87
2018-11-13T03:24:38.798Z,42.27
2018-11-13T03:27:13.033Z,45.67
2018-11-13T03:29:47.459Z,49.80
2018-11-13T03:32:21.894Z,48.43
2018-11-13T03:34:56.273Z,43.67
2018-11-13T03:37:30.474Z,46.43
2018-11-13T03:40:05.806Z,49.60
2018-11-13T03:42:40.305Z,49.30
2018-11-13T03:45:14.820Z,47.97
2018-11-13T03:47:49.044Z,51.60
2018-11-13T03:50:23.346Z,51.23
2018-11-13T03:52:57.538Z,53.70
2018-11-13T03:55:31.821Z,50.70
2018-11-13T03:58:06.510Z,49.73
2018-11-13T04:00:40.698Z,47.57
2018-11-13T04:03:15.210Z,48.23
2018-11-13T04:05:49.539Z,45.93
2018-11-13T04:08:23.837Z,46.60
2018-11-13T04:10:58.276Z,48.07
2018-11-13T04:13:32.622Z,50.43
2018-11-13T04:16:06.902Z,59.33
2018-11-13T04:18:41.205Z,63.87
2018-11-13T04:21:15.626Z,64.80
2018-11-13T04:23:50.075Z,63.97
2018-11-13T04:26:24.622Z,62.37
2018-11-13T04:28:58.839Z,59.77
2018-11-13T04:31:33.150Z,58.30
2018-11-13T04:34:07.422Z,59.60
2018-11-13T04:36:41.831Z,55.07
2018-11-13T04:39:16.030Z,53.97
2018-11-13T04:41:50.235Z,53.97
2018-11-13T04:44:24.666Z,53.67
2018-11-13T04:46:58.970Z,55.33
2018-11-13T04:49:33.395Z,49.63
2018-11-13T04:52:07.906Z,53.20
2018-11-13T04:54:42.193Z,47.53
2018-11-13T04:57:16.573Z,42.03
2018-11-13T04:59:50.950Z,45.93
2018-11-13T05:02:25.331Z,43.60
2018-11-13T05:04:59.634Z,41.47
2018-11-13T05:07:33.934Z,45.63
2018-11-13T05:10:10.434Z,43.30
2018-11-13T05:12:45.332Z,41.50
2018-11-13T05:15:19.718Z,42.73
2018-11-13T05:17:54.049Z,40.20
2018-11-13T05:20:28.335Z,41.80
2018-11-13T05:23:02.701Z,42.00
2018-11-13T05:25:37.031Z,41.60
2018-11-13T05:28:11.193Z,41.37
2018-11-13T05:30:45.364Z,40.63
2018-11-13T05:33:19.731Z,42.27
2018-11-13T05:35:54.074Z,45.07
2018-11-13T05:38:28.501Z,33.23
2018-11-13T05:41:02.874Z,37.20
2018-11-13T05:43:37.057Z,39.00
2018-11-13T05:46:11.462Z,33.20
2018-11-13T05:48:45.781Z,31.90
2018-11-13T05:51:20.090Z,35.37
2018-11-13T05:53:54.462Z,37.77
2018-11-13T05:56:28.754Z,36.33
2018-11-13T05:59:03.094Z,33.60
2018-11-13T06:01:37.446Z,31.93
2018-11-13T06:04:11.722Z,33.53
2018-11-13T06:06:46.018Z,38.77
2018-11-13T06:09:20.294Z,33.27
2018-11-13T06:11:54.726Z,32.53
2018-11-13T06:14:29.061Z,33.67
2018-11-13T06:17:03.261Z,35.70
2018-11-13T06:19:37.653Z,31.13
2018-11-13T06:22:11.986Z,33.57
2018-11-13T06:24:46.226Z,33.17
2018-11-13T06:27:20.839Z,31.87
2018-11-13T06:29:55.161Z,33.80
2018-11-13T06:32:29.634Z,37.17
2018-11-13T06:35:04.167Z,33.10
2018-11-13T06:37:38.830Z,29.60
2018-11-13T06:40:13.174Z,34.60
2018-11-13T06:42:47.402Z,33.77
2018-11-13T06:45:22.617Z,38.83
2018-11-13T06:47:56.930Z,32.30
2018-11-13T06:50:31.306Z,36.50
2018-11-13T06:53:05.648Z,32.73
2018-11-13T06:55:42.343Z,33.17
2018-11-13T06:58:16.514Z,33.07
2018-11-13T07:00:50.918Z,44.27
2018-11-13T07:03:25.229Z,33.73
2018-11-13T07:05:59.558Z,32.67
2018-11-13T07:08:33.735Z,32.87
2018-11-13T07:11:08.154Z,30.37
2018-11-13T07:13:42.499Z,30.40
2018-11-13T07:16:16.748Z,30.97
2018-11-13T07:18:50.999Z,33.30
2018-11-13T07:21:25.305Z,27.73
2018-11-13T07:23:59.734Z,27.53
2018-11-13T07:26:34.070Z,28.73
2018-11-13T07:29:08.489Z,28.90
2018-11-13T07:31:42.709Z,28.03
2018-11-13T07:34:17.060Z,27.90
2018-11-13T07:36:52.258Z,24.03
2018-11-13T07:39:26.765Z,28.47
2018-11-13T07:42:00.954Z,28.77
2018-11-13T07:44:35.363Z,30.30
2018-11-13T07:47:09.769Z,24.90
2018-11-13T07:49:43.900Z,27.37
2018-11-13T07:52:18.122Z,26.73
2018-11-13T07:54:52.526Z,22.40
2018-11-13T07:57:26.846Z,20.50
2018-11-13T08:00:01.258Z,20.97
2018-11-13T08:02:35.630Z,18.27
2018-11-13T08:05:10.042Z,19.93
2018-11-13T08:07:44.274Z,19.80
2018-11-13T08:10:18.582Z,16.37
2018-11-13T08:12:53.075Z,17.83
2018-11-13T08:15:27.387Z,17.63
2018-11-13T08:18:01.638Z,14.53
2018-11-13T08:20:35.962Z,16.73
2018-11-13T08:23:10.382Z,14.93
2018-11-13T08:25:44.578Z,14.90
2018-11-13T08:28:18.849Z,15.87
2018-11-13T08:30:52.973Z,14.43
2018-11-13T08:33:27.243Z,14.03
2018-11-13T08:36:01.493Z,13.03
2018-11-13T08:38:35.642Z,12.00
2018-11-13T08:41:09.942Z,11.30
2018-11-13T08:43:44.402Z,10.23
2018-11-13T08:46:18.525Z,10.03
2018-11-13T08:48:52.806Z,11.70
2018-11-13T08:51:27.039Z,8.77
2018-11-13T08:54:01.439Z,13.57
2018-11-13T08:56:35.690Z,9.50
2018-11-13T08:59:10.013Z,7.53
2018-11-13T09:01:44.218Z,11.47
2018-11-13T09:04:18.514Z,10.27
2018-11-13T09:06:52.802Z,9.73
2018-11-13T09:09:27.118Z,13.43
2018-11-13T09:12:01.529Z,8.57
2018-11-13T09:14:36.063Z,10.63
2018-11-13T09:17:10.738Z,7.83
2018-11-13T09:19:45.126Z,9.27
2018-11-13T09:22:19.244Z,8.57
2018-11-13T09:24:53.578Z,7.47
2018-11-13T09:27:27.862Z,8.87
2018-11-13T09:30:02.577Z,11.67
2018-11-13T09:32:36.954Z,7.57
2018-11-13T09:35:12.549Z,8.63
2018-11-13T09:37:46.873Z,8.60
2018-11-13T09:40:21.350Z,5.57
2018-11-13T09:42:55.506Z,5.57
2018-11-13T09:45:29.940Z,7.70
2018-11-13T09:48:04.439Z,5.33
2018-11-13T09:50:38.691Z,9.70
2018-11-13T09:53:12.967Z,5.70
2018-11-13T09:55:47.234Z,6.27
2018-11-13T09:58:21.418Z,5.27
2018-11-13T10:00:55.949Z,6.40
2018-11-13T10:03:30.886Z,11.50
2018-11-13T10:06:04.682Z,5.20
2018-11-13T10:08:38.843Z,5.47
2018-11-13T10:11:13.165Z,8.37
2018-11-13T10:13:47.426Z,7.50
2018-11-13T10:16:21.818Z,8.93
2018-11-13T10:18:55.958Z,6.77
2018-11-13T10:21:30.175Z,5.90
2018-11-13T10:24:05.014Z,7.47
2018-11-13T10:26:39.348Z,6.43
2018-11-13T10:29:13.650Z,5.50
2018-11-13T10:31:48.034Z,6.23
2018-11-13T10:34:22.278Z,6.50
2018-11-13T10:36:56.551Z,7.20
2018-11-13T10:39:30.742Z,10.30
2018-11-13T10:42:05.442Z,10.27
2018-11-13T10:44:39.698Z,10.90
2018-11-13T10:47:13.883Z,6.07
2018-11-13T10:49:48.050Z,7.23
2018-11-13T10:52:22.427Z,5.90
2018-11-13T10:54:56.830Z,6.40
2018-11-13T10:57:31.142Z,13.30
2018-11-13T11:00:12.335Z,8.33
2018-11-13T11:02:52.588Z,8.83
2018-11-13T11:05:27.966Z,9.30
2018-11-13T11:08:02.333Z,7.20
2018-11-13T11:10:36.605Z,6.93
2018-11-13T11:13:11.042Z,4.83
2018-11-13T11:15:45.133Z,6.77
2018-11-13T11:18:19.367Z,8.33
2018-11-13T11:20:53.558Z,4.87
2018-11-13T11:23:27.821Z,3.77
2018-11-13T11:26:02.046Z,5.40
2018-11-13T11:28:36.310Z,4.07
2018-11-13T11:31:10.702Z,3.93
2018-11-13T11:33:44.922Z,6.62
2018-11-13T11:36:19.326Z,4.83
2018-11-13T11:38:53.801Z,3.97
2018-11-13T11:41:27.886Z,3.37
2018-11-13T11:44:02.133Z,5.27
2018-11-13T11:46:36.542Z,4.73
2018-11-13T11:49:10.870Z,4.30
2018-11-13T11:51:45.150Z,3.97
2018-11-13T11:54:19.428Z,7.13
2018-11-13T11:56:53.698Z,5.27
2018-11-13T11:59:28.127Z,5.20
2018-11-13T12:02:02.459Z,6.93
2018-11-13T12:04:36.637Z,7.13
2018-11-13T12:07:10.962Z,7.50
2018-11-13T12:09:45.249Z,6.63
2018-11-13T12:12:19.668Z,4.50
2018-11-13T12:14:53.767Z,3.77
2018-11-13T12:17:28.153Z,6.47
2018-11-13T12:20:02.482Z,6.80
2018-11-13T12:22:36.778Z,7.63
2018-11-13T12:25:14.514Z,5.10
2018-11-13T12:27:48.799Z,9.30
2018-11-13T12:30:24.066Z,5.50
2018-11-13T12:32:58.316Z,4.77
2018-11-13T12:35:32.670Z,7.30
2018-11-13T12:38:06.961Z,3.77
2018-11-13T12:40:41.625Z,4.90
2018-11-13T12:43:15.514Z,5.43
2018-11-13T12:45:49.682Z,6.17
2018-11-13T12:48:24.021Z,6.93
2018-11-13T12:51:02.899Z,4.93
2018-11-13T12:53:37.195Z,5.03
2018-11-13T12:56:11.573Z,3.53
2018-11-13T12:58:45.773Z,5.53
2018-11-13T13:01:20.130Z,5.83
2018-11-13T13:03:54.523Z,4.13
2018-11-13T13:06:28.818Z,3.97
2018-11-13T13:09:03.354Z,4.63
2018-11-13T13:11:37.654Z,4.40
2018-11-13T13:14:14.317Z,4.03
2018-11-13T13:16:48.660Z,3.07
2018-11-13T13:19:22.916Z,1.47
2018-11-13T13:21:57.356Z,3.57
2018-11-13T13:24:31.662Z,1.70
2018-11-13T13:27:05.974Z,1.43
2018-11-13T13:29:41.054Z,3.40
2018-11-13T13:32:15.350Z,3.37
2018-11-13T13:34:49.749Z,4.70
2018-11-13T13:37:24.155Z,3.73
2018-11-13T13:39:58.461Z,1.67
2018-11-13T13:42:32.852Z,3.23
2018-11-13T13:45:07.182Z,4.17
2018-11-13T13:47:41.498Z,1.33
2018-11-13T13:50:15.777Z,2.57
2018-11-13T13:52:50.017Z,1.53
2018-11-13T13:55:26.067Z,19.80
2018-11-13T13:58:00.370Z,1.80
2018-11-13T14:00:34.737Z,4.97
2018-11-13T14:03:09.865Z,2.57
2018-11-13T14:05:44.686Z,2.07
2018-11-13T14:08:19.202Z,1.47
2018-11-13T14:10:53.490Z,1.83
2018-11-13T14:13:27.808Z,1.77
2018-11-13T14:16:02.195Z,2.43
2018-11-13T14:18:36.402Z,4.37
2018-11-13T14:21:10.766Z,1.37
2018-11-13T14:23:45.199Z,4.33
2018-11-13T14:26:19.434Z,2.77
2018-11-13T14:28:53.941Z,1.73
2018-11-13T14:31:28.179Z,5.50
2018-11-13T14:34:02.631Z,4.23
2018-11-13T14:36:37.042Z,4.53
2018-11-13T14:39:11.830Z,2.63
2018-11-13T14:41:46.078Z,2.97
2018-11-13T14:44:20.386Z,3.10
2018-11-13T14:46:54.721Z,5.13
2018-11-13T14:49:29.140Z,6.17
2018-11-13T14:52:03.531Z,2.97
2018-11-13T14:54:37.794Z,2.37
2018-11-13T14:57:12.029Z,5.30
2018-11-13T14:59:46.287Z,4.13
2018-11-13T15:02:20.609Z,2.13
2018-11-13T15:04:54.907Z,1.93
2018-11-13T15:07:29.266Z,4.27
2018-11-13T15:10:03.750Z,3.10
2018-11-13T15:12:38.159Z,5.60
2018-11-13T15:15:12.657Z,3.80
2018-11-13T15:17:46.862Z,3.90
2018-11-13T15:20:21.202Z,5.33
2018-11-13T15:22:55.470Z,3.77
2018-11-13T15:25:29.818Z,2.60
2018-11-13T15:28:04.552Z,7.80
2018-11-13T15:30:40.436Z,5.13
2018-11-13T15:33:16.027Z,8.00
2018-11-13T15:35:50.246Z,4.63
2018-11-13T15:38:24.497Z,3.57
2018-11-13T15:40:58.825Z,4.37
2018-11-13T15:43:33.125Z,4.47
2018-11-13T15:46:07.286Z,5.03
2018-11-13T15:48:41.572Z,3.67
2018-11-13T15:51:16.086Z,4.57
2018-11-13T15:53:50.351Z,3.87
2018-11-13T15:56:24.493Z,4.77
2018-11-13T15:58:58.765Z,4.07
2018-11-13T16:01:33.002Z,6.30
2018-11-13T16:04:07.286Z,6.17
2018-11-13T16:06:41.587Z,6.40
2018-11-13T16:09:15.779Z,2.63
2018-11-13T16:11:49.897Z,5.07
2018-11-13T16:14:24.202Z,4.27
2018-11-13T16:16:58.520Z,6.07
2018-11-13T16:19:32.698Z,5.83
2018-11-13T16:22:07.133Z,7.53
2018-11-13T16:24:41.382Z,4.37
2018-11-13T16:27:15.786Z,7.87
2018-11-13T16:29:50.159Z,5.20
2018-11-13T16:32:24.601Z,8.27
2018-11-13T16:34:58.879Z,5.33
2018-11-13T16:37:33.051Z,9.33
2018-11-13T16:40:08.706Z,8.88
2018-11-13T16:42:43.095Z,6.97
2018-11-13T16:45:18.763Z,5.43
2018-11-13T16:47:53.264Z,7.10
2018-11-13T16:50:28.690Z,5.37
2018-11-13T16:53:02.987Z,5.23
2018-11-13T16:55:42.469Z,3.67
2018-11-13T16:58:17.092Z,4.53
2018-11-13T17:00:51.417Z,3.60
2018-11-13T17:03:25.597Z,3.60
2018-11-13T17:10:11.125Z,6.97
2018-11-13T17:12:45.751Z,4.13
2018-11-13T17:15:21.290Z,5.97
2018-11-13T17:17:56.729Z,6.40
2018-11-13T17:20:30.908Z,7.53
2018-11-13T17:23:05.184Z,8.07
2018-11-13T17:25:39.796Z,3.87
2018-11-13T17:28:13.991Z,5.40
2018-11-13T17:30:48.269Z,3.67
2018-11-13T17:33:22.478Z,4.07
2018-11-13T17:35:56.806Z,5.30
2018-11-13T17:38:31.003Z,3.33
2018-11-13T17:41:05.574Z,6.27
2018-11-13T17:43:39.778Z,3.33
2018-11-13T17:46:14.025Z,4.93
2018-11-13T17:48:48.238Z,5.23
2018-11-13T17:51:22.499Z,6.17
2018-11-13T17:53:56.885Z,5.10
2018-11-13T17:56:31.107Z,4.53
2018-11-13T17:59:05.605Z,5.13
2018-11-13T18:01:41.199Z,5.20
2018-11-13T18:04:17.091Z,6.90
2018-11-13T18:06:51.382Z,5.17
2018-11-13T18:09:25.810Z,4.47
2018-11-13T18:12:00.234Z,9.23
2018-11-13T18:14:34.464Z,6.07
2018-11-13T18:17:08.614Z,5.27
2018-11-13T18:19:42.958Z,8.40
2018-11-13T18:22:17.209Z,6.50
2018-11-13T18:24:51.429Z,6.90
2018-11-13T18:27:25.690Z,6.53
2018-11-13T18:29:59.982Z,4.30
2018-11-13T18:32:34.270Z,4.80
2018-11-13T18:35:09.930Z,4.37
2018-11-13T18:37:44.815Z,6.17
2018-11-13T18:40:19.938Z,6.60
2018-11-13T18:43:01.522Z,8.47
2018-11-13T18:45:37.074Z,7.10
2018-11-13T18:48:11.296Z,4.73
2018-11-13T18:50:46.106Z,7.40
2018-11-13T18:53:20.402Z,8.83
2018-11-13T18:55:54.590Z,9.00
2018-11-13T18:58:28.879Z,7.77
2018-11-13T19:01:03.222Z,7.43
2018-11-13T19:03:37.438Z,3.83
2018-11-13T19:06:11.733Z,5.07
2018-11-13T19:08:46.174Z,3.00
2018-11-13T19:11:20.432Z,8.83
2018-11-13T19:13:54.763Z,3.93
2018-11-13T19:16:28.962Z,7.20
2018-11-13T19:19:03.614Z,6.50
2018-11-13T19:21:37.921Z,6.83
2018-11-13T19:24:12.310Z,7.57
2018-11-13T19:26:46.646Z,9.50
2018-11-13T19:29:20.865Z,6.07
2018-11-13T19:31:55.105Z,7.17
2018-11-13T19:34:29.627Z,6.23
2018-11-13T19:37:03.975Z,6.13
2018-11-13T19:39:38.154Z,5.17
2018-11-13T19:42:12.330Z,5.03
2018-11-13T19:44:46.575Z,7.07
2018-11-13T19:47:20.762Z,6.80
2018-11-13T19:49:55.084Z,3.33
2018-11-13T19:52:29.342Z,4.97
2018-11-13T19:55:04.066Z,5.23
2018-11-13T19:57:38.553Z,7.30
2018-11-13T20:00:17.867Z,5.73
2018-11-13T20:02:53.055Z,7.03
2018-11-13T20:05:27.999Z,10.30
2018-11-13T20:08:02.278Z,6.83
2018-11-13T20:10:37.255Z,5.63
2018-11-13T20:13:11.754Z,8.17
2018-11-13T20:15:46.154Z,6.73
2018-11-13T20:18:20.468Z,8.30
2018-11-13T20:20:54.769Z,6.03
2018-11-13T20:23:29.046Z,5.90
2018-11-13T20:26:03.401Z,8.90
2018-11-13T20:28:37.587Z,6.13
2018-11-13T20:31:12.076Z,8.00
2018-11-13T20:33:46.198Z,7.70
2018-11-13T20:36:20.362Z,11.40
2018-11-13T20:38:54.638Z,10.43
2018-11-13T20:41:28.941Z,10.53
2018-11-13T20:44:03.358Z,20.27
2018-11-13T20:46:37.682Z,30.27
2018-11-13T20:49:11.818Z,31.10
2018-11-13T20:51:46.026Z,9.03
2018-11-13T20:54:20.386Z,10.53
2018-11-13T20:56:54.703Z,9.90
2018-11-13T20:59:28.958Z,9.00
2018-11-13T21:02:03.550Z,7.40
2018-11-13T21:04:37.750Z,10.30
2018-11-13T21:07:12.022Z,10.00
2018-11-13T21:09:46.319Z,11.37
2018-11-13T21:12:20.634Z,6.40
2018-11-13T21:14:55.035Z,10.63
2018-11-13T21:17:29.431Z,12.40
2018-11-13T21:20:03.881Z,10.87
2018-11-13T21:22:38.240Z,10.13
2018-11-13T21:25:13.903Z,9.97
2018-11-13T21:27:48.306Z,12.07
2018-11-13T21:30:22.933Z,9.20
2018-11-13T21:32:57.198Z,8.37
2018-11-13T21:35:31.643Z,11.27
2018-11-13T21:38:06.177Z,8.93
2018-11-13T21:40:40.502Z,10.90
2018-11-13T21:43:14.851Z,10.63
2018-11-13T21:45:49.113Z,11.17
2018-11-13T21:48:23.476Z,11.73
2018-11-13T21:50:57.754Z,10.90
2018-11-13T21:53:32.074Z,9.07
2018-11-13T21:56:06.370Z,11.33
2018-11-13T21:58:40.594Z,15.43
2018-11-13T22:01:14.954Z,12.33
2018-11-13T22:03:49.273Z,9.13
2018-11-13T22:06:23.646Z,10.47
2018-11-13T22:08:57.994Z,9.27
2018-11-13T22:11:32.346Z,12.40
2018-11-13T22:14:06.750Z,10.07
2018-11-13T22:16:41.160Z,9.03
2018-11-13T22:19:15.273Z,10.73
2018-11-13T22:21:49.530Z,15.13
2018-11-13T22:24:23.874Z,12.67
2018-11-13T22:26:58.198Z,16.33
2018-11-13T22:29:32.522Z,14.33
2018-11-13T22:32:06.822Z,9.97
2018-11-13T22:34:41.138Z,12.57
2018-11-13T22:37:15.569Z,20.40
2018-11-13T22:39:49.905Z,12.00
2018-11-13T22:42:24.197Z,7.90
2018-11-13T22:44:58.593Z,11.17
2018-11-13T22:47:33.038Z,9.53
2018-11-13T22:50:15.422Z,15.00
2018-11-13T22:52:49.990Z,15.33
2018-11-13T22:55:24.121Z,15.27
2018-11-13T22:57:59.593Z,17.47
2018-11-13T23:00:48.493Z,15.70
2018-11-13T23:03:22.222Z,10.07
2018-11-13T23:05:56.567Z,14.23
2018-11-13T23:08:30.713Z,15.40
2018-11-13T23:11:10.786Z,11.40
2018-11-13T23:13:45.302Z,14.83
2018-11-13T23:16:19.597Z,16.32
2018-11-13T23:18:53.958Z,15.50
2018-11-13T23:21:28.310Z,11.60
2018-11-13T23:24:02.726Z,14.40
2018-11-13T23:26:37.093Z,14.60
2018-11-13T23:29:11.378Z,14.33
2018-11-13T23:31:46.313Z,16.50
2018-11-13T23:34:20.054Z,17.93
2018-11-13T23:36:54.242Z,12.03
2018-11-13T23:39:28.546Z,11.20
2018-11-13T23:42:02.967Z,16.73
2018-11-13T23:44:37.314Z,13.63
2018-11-13T23:47:11.599Z,12.23
2018-11-13T23:49:45.816Z,14.70
2018-11-13T23:52:20.195Z,13.80
2018-11-13T23:54:54.507Z,13.40
2018-11-13T23:57:28.790Z,17.10
